createdAt,value
2017-10-16T00:01:10.885Z,16.30
2017-10-16T00:03:40.205Z,16.30
2017-10-16T00:06:08.584Z,16.30
2017-10-16T00:08:36.970Z,16.30
2017-10-16T00:11:06.108Z,16.20
2017-10-16T00:13:34.496Z,16.20
2017-10-16T00:16:02.877Z,16.20
2017-10-16T00:18:31.265Z,16.10
2017-10-16T00:20:59.644Z,16.20
2017-10-16T00:23:28.033Z,16.10
2017-10-16T00:25:56.421Z,16.00
2017-10-16T00:28:24.806Z,16.00
2017-10-16T00:30:53.188Z,16.00
2017-10-16T00:33:22.332Z,15.80
2017-10-16T00:35:50.724Z,15.80
2017-10-16T00:38:19.102Z,15.80
2017-10-16T00:40:47.136Z,15.90
2017-10-16T00:43:15.521Z,16.00
2017-10-16T00:45:43.712Z,15.90
2017-10-16T00:48:12.094Z,16.00
2017-10-16T00:50:40.473Z,16.10
2017-10-16T00:53:08.520Z,16.10
2017-10-16T00:55:36.316Z,16.20
2017-10-16T00:58:03.993Z,16.20
2017-10-16T01:00:31.703Z,16.20
2017-10-16T01:03:00.086Z,16.30
2017-10-16T01:05:28.478Z,16.40
2017-10-16T01:07:57.367Z,16.50
2017-10-16T01:10:25.775Z,16.50
2017-10-16T01:12:54.142Z,16.60
2017-10-16T01:15:22.539Z,16.60
2017-10-16T01:17:51.930Z,16.70
2017-10-16T01:20:20.300Z,16.70
2017-10-16T01:22:47.990Z,16.70
2017-10-16T01:25:16.025Z,16.70
2017-10-16T01:27:44.825Z,16.90
2017-10-16T01:30:12.325Z,16.80
2017-10-16T01:32:41.113Z,16.90
2017-10-16T01:35:09.749Z,16.90
2017-10-16T01:37:37.622Z,16.90
2017-10-16T01:40:05.396Z,17.00
2017-10-16T01:42:33.425Z,17.00
2017-10-16T01:45:01.465Z,17.00
2017-10-16T01:47:30.261Z,16.90
2017-10-16T01:49:58.004Z,16.90
2017-10-16T01:52:26.806Z,16.90
2017-10-16T01:54:55.249Z,16.90
2017-10-16T01:57:23.641Z,16.90
2017-10-16T01:59:51.678Z,16.90
2017-10-16T02:02:20.123Z,16.80
2017-10-16T02:04:48.324Z,16.80
2017-10-16T02:07:16.361Z,16.80
2017-10-16T02:09:45.171Z,16.70
2017-10-16T02:12:13.650Z,16.70
2017-10-16T02:14:42.023Z,16.70
2017-10-16T02:17:10.396Z,16.60
2017-10-16T02:19:38.789Z,16.60
2017-10-16T02:22:07.169Z,16.60
2017-10-16T02:24:35.345Z,16.50
2017-10-16T02:27:03.737Z,16.50
2017-10-16T02:29:32.118Z,16.50
2017-10-16T02:32:00.505Z,16.50
2017-10-16T02:34:28.901Z,16.40
2017-10-16T02:36:57.288Z,16.40
2017-10-16T02:39:26.457Z,16.40
2017-10-16T02:41:54.854Z,16.30
2017-10-16T02:44:23.244Z,16.30
2017-10-16T02:46:52.393Z,16.40
2017-10-16T02:49:20.782Z,16.30
2017-10-16T02:51:48.961Z,16.30
2017-10-16T02:54:18.128Z,16.30
2017-10-16T02:56:46.507Z,16.30
2017-10-16T02:59:14.869Z,16.30
2017-10-16T03:01:43.266Z,16.20
2017-10-16T03:04:14.357Z,16.20
2017-10-16T03:06:42.751Z,16.20
2017-10-16T03:09:11.719Z,16.30
2017-10-16T03:11:40.162Z,16.30
2017-10-16T03:14:08.548Z,16.30
2017-10-16T03:16:36.805Z,16.30
2017-10-16T03:19:05.201Z,16.30
2017-10-16T03:21:33.584Z,16.30
2017-10-16T03:24:01.956Z,16.30
2017-10-16T03:26:30.344Z,16.40
2017-10-16T03:28:58.732Z,16.40
2017-10-16T03:31:27.126Z,16.40
2017-10-16T03:33:55.500Z,16.40
2017-10-16T03:36:23.874Z,16.40
2017-10-16T03:38:52.080Z,16.40
2017-10-16T03:41:21.229Z,16.40
2017-10-16T03:43:49.629Z,16.40
2017-10-16T03:46:18.784Z,16.40
2017-10-16T03:48:46.981Z,16.40
2017-10-16T03:51:15.387Z,16.40
2017-10-16T03:53:44.525Z,16.40
2017-10-16T03:56:12.921Z,16.40
2017-10-16T03:58:41.291Z,16.40
2017-10-16T04:01:09.667Z,16.40
2017-10-16T04:03:38.071Z,16.50
2017-10-16T04:06:06.442Z,16.50
2017-10-16T04:08:34.854Z,16.40
2017-10-16T04:11:03.993Z,16.40
2017-10-16T04:13:32.381Z,16.40
2017-10-16T04:16:00.607Z,16.40
2017-10-16T04:18:29.804Z,16.40
2017-10-16T04:20:58.957Z,16.40
2017-10-16T04:23:27.340Z,16.40
2017-10-16T04:25:55.724Z,16.50
2017-10-16T04:28:24.109Z,16.50
2017-10-16T04:30:52.524Z,16.50
2017-10-16T04:33:21.707Z,16.60
2017-10-16T04:35:50.861Z,16.50
2017-10-16T04:38:19.241Z,16.50
2017-10-16T04:40:47.622Z,16.50
2017-10-16T04:43:16.000Z,16.50
2017-10-16T04:45:44.413Z,16.50
2017-10-16T04:48:13.563Z,16.30
2017-10-16T04:50:42.970Z,16.30
2017-10-16T04:53:11.377Z,16.30
2017-10-16T04:55:40.120Z,16.40
2017-10-16T04:58:08.525Z,16.30
2017-10-16T05:00:36.909Z,16.30
2017-10-16T05:03:05.286Z,16.40
2017-10-16T05:05:33.708Z,16.40
2017-10-16T05:08:02.848Z,16.60
2017-10-16T05:10:31.244Z,16.60
2017-10-16T05:12:59.644Z,16.60
2017-10-16T05:15:28.796Z,16.70
2017-10-16T05:17:57.200Z,16.60
2017-10-16T05:20:25.652Z,16.60
2017-10-16T05:22:54.032Z,16.60
2017-10-16T05:25:22.424Z,16.50
2017-10-16T05:27:50.804Z,16.60
2017-10-16T05:30:19.288Z,16.70
2017-10-16T05:32:47.664Z,16.80
2017-10-16T05:35:16.041Z,16.70
2017-10-16T05:37:44.435Z,16.80
2017-10-16T05:40:12.816Z,16.80
2017-10-16T05:42:40.682Z,16.80
2017-10-16T05:45:08.359Z,16.90
2017-10-16T05:47:37.160Z,16.90
2017-10-16T05:50:05.966Z,16.90
2017-10-16T05:52:34.341Z,16.90
2017-10-16T05:55:02.834Z,16.90
2017-10-16T05:57:30.867Z,16.90
2017-10-16T06:00:00.103Z,16.90
2017-10-16T06:02:28.186Z,16.90
2017-10-16T06:04:56.027Z,16.90
2017-10-16T06:07:23.564Z,16.90
2017-10-16T06:09:51.243Z,16.90
2017-10-16T06:12:19.605Z,16.90
2017-10-16T06:14:47.817Z,17.00
2017-10-16T06:17:15.648Z,17.10
2017-10-16T06:19:44.077Z,17.10
2017-10-16T06:22:12.468Z,17.10
2017-10-16T06:24:41.557Z,17.00
2017-10-16T06:27:09.613Z,17.00
2017-10-16T06:29:37.641Z,17.00
2017-10-16T06:32:05.361Z,16.90
2017-10-16T06:34:33.740Z,16.90
2017-10-16T06:37:02.122Z,16.90
2017-10-16T06:39:29.833Z,16.80
2017-10-16T06:41:58.277Z,16.80
2017-10-16T06:44:26.749Z,16.80
2017-10-16T06:46:54.437Z,16.90
2017-10-16T06:49:22.817Z,16.90
2017-10-16T06:51:51.017Z,16.80
2017-10-16T06:54:19.415Z,16.70
2017-10-16T06:56:47.617Z,16.60
2017-10-16T06:59:16.025Z,16.60
2017-10-16T07:01:44.402Z,16.70
2017-10-16T07:04:12.794Z,16.80
2017-10-16T07:06:41.212Z,17.00
2017-10-16T07:09:09.609Z,17.20
2017-10-16T07:11:37.988Z,17.40
2017-10-16T07:14:06.377Z,17.60
2017-10-16T07:16:35.518Z,17.90
2017-10-16T07:19:03.889Z,17.90
2017-10-16T07:21:32.298Z,18.00
2017-10-16T07:24:00.678Z,18.10
2017-10-16T07:26:29.840Z,18.30
2017-10-16T07:28:58.472Z,18.30
2017-10-16T07:31:26.848Z,18.40
2017-10-16T07:33:55.241Z,18.40
2017-10-16T07:36:24.049Z,18.60
2017-10-16T07:38:52.432Z,18.60
2017-10-16T07:41:20.818Z,18.70
2017-10-16T07:43:49.017Z,18.80
2017-10-16T07:46:17.403Z,19.00
2017-10-16T07:48:45.832Z,19.10
2017-10-16T07:51:14.961Z,19.30
2017-10-16T07:53:43.461Z,19.30
2017-10-16T07:56:11.828Z,19.40
2017-10-16T07:58:40.240Z,19.50
2017-10-16T08:01:08.602Z,19.60
2017-10-16T08:03:36.982Z,19.70
2017-10-16T08:06:05.362Z,19.80
2017-10-16T08:08:33.735Z,20.00
2017-10-16T08:11:02.910Z,20.20
2017-10-16T08:13:31.352Z,20.20
2017-10-16T08:16:00.485Z,20.40
2017-10-16T08:18:28.877Z,20.40
2017-10-16T08:20:57.249Z,20.50
2017-10-16T08:23:25.721Z,20.70
2017-10-16T08:25:53.404Z,20.70
2017-10-16T08:28:21.109Z,20.80
2017-10-16T08:30:49.563Z,21.20
2017-10-16T08:33:17.602Z,21.20
2017-10-16T08:35:45.288Z,21.40
2017-10-16T08:38:12.986Z,21.70
2017-10-16T08:40:41.822Z,21.80
2017-10-16T08:43:09.497Z,21.80
2017-10-16T08:45:37.546Z,21.90
2017-10-16T08:48:05.224Z,22.00
2017-10-16T08:50:33.254Z,22.20
2017-10-16T08:53:01.021Z,22.30
2017-10-16T08:55:28.738Z,22.40
2017-10-16T08:57:56.580Z,22.50
2017-10-16T09:00:24.980Z,22.70
2017-10-16T09:02:52.790Z,22.80
2017-10-16T09:05:20.489Z,23.00
2017-10-16T09:07:49.541Z,23.20
2017-10-16T09:10:17.583Z,23.10
2017-10-16T09:12:46.030Z,22.90
2017-10-16T09:15:13.697Z,22.90
2017-10-16T09:17:41.752Z,22.70
2017-10-16T09:20:10.462Z,22.40
2017-10-16T09:22:38.204Z,22.30
2017-10-16T09:25:06.235Z,22.30
2017-10-16T09:27:33.917Z,22.30
2017-10-16T09:30:01.630Z,22.30
2017-10-16T09:32:30.425Z,22.30
2017-10-16T09:34:58.904Z,22.30
2017-10-16T09:37:26.625Z,22.30
2017-10-16T09:39:54.461Z,22.30
2017-10-16T09:42:22.166Z,22.30
2017-10-16T09:44:50.062Z,22.20
2017-10-16T09:47:17.809Z,22.30
2017-10-16T09:49:45.489Z,22.30
2017-10-16T09:52:13.949Z,22.50
2017-10-16T09:54:41.637Z,22.40
2017-10-16T09:57:09.391Z,22.70
2017-10-16T09:59:38.207Z,23.60
2017-10-16T10:02:05.695Z,23.50
2017-10-16T10:04:33.416Z,24.00
2017-10-16T10:07:02.066Z,24.70
2017-10-16T10:09:29.772Z,24.70
2017-10-16T10:11:57.493Z,24.80
2017-10-16T10:14:25.880Z,24.80
2017-10-16T10:16:55.177Z,24.90
2017-10-16T10:19:23.386Z,24.80
2017-10-16T10:21:51.765Z,25.10
2017-10-16T10:24:20.249Z,25.20
2017-10-16T10:26:48.626Z,25.40
2017-10-16T10:29:17.022Z,25.60
2017-10-16T10:31:45.474Z,25.70
2017-10-16T10:34:13.845Z,25.80
2017-10-16T10:36:42.284Z,25.90
2017-10-16T10:39:11.665Z,26.10
2017-10-16T10:41:40.068Z,26.10
2017-10-16T10:44:08.211Z,26.20
2017-10-16T10:46:36.582Z,26.40
2017-10-16T10:49:04.990Z,26.50
2017-10-16T10:51:33.085Z,26.70
2017-10-16T10:54:02.281Z,27.10
2017-10-16T10:56:30.673Z,27.00
2017-10-16T10:58:59.815Z,27.40
2017-10-16T11:01:27.959Z,27.40
2017-10-16T11:03:56.329Z,27.40
2017-10-16T11:06:24.730Z,27.20
2017-10-16T11:08:53.117Z,26.80
2017-10-16T11:11:21.490Z,26.40
2017-10-16T11:13:49.883Z,26.20
2017-10-16T11:16:18.262Z,26.10
2017-10-16T11:18:45.953Z,26.10
2017-10-16T11:21:13.476Z,26.10
2017-10-16T11:23:41.187Z,26.10
2017-10-16T11:26:09.650Z,26.10
2017-10-16T11:28:37.325Z,26.10
2017-10-16T11:31:05.785Z,26.70
2017-10-16T11:33:33.496Z,26.70
2017-10-16T11:36:01.280Z,26.70
2017-10-16T11:38:28.999Z,26.90
2017-10-16T11:40:57.443Z,27.20
2017-10-16T11:43:25.894Z,27.20
2017-10-16T11:45:53.582Z,27.20
2017-10-16T11:48:21.606Z,27.10
2017-10-16T11:50:49.684Z,27.00
2017-10-16T11:53:18.250Z,27.10
2017-10-16T11:55:46.046Z,26.60
2017-10-16T11:58:13.742Z,26.60
2017-10-16T12:00:41.480Z,26.80
2017-10-16T12:03:09.176Z,27.00
2017-10-16T12:05:36.912Z,27.30
2017-10-16T12:08:04.621Z,27.50
2017-10-16T12:10:33.088Z,28.10
2017-10-16T12:13:01.570Z,28.30
2017-10-16T12:15:30.074Z,28.80
2017-10-16T12:17:57.766Z,28.80
2017-10-16T12:20:25.452Z,29.00
2017-10-16T12:22:54.341Z,29.30
2017-10-16T12:25:22.049Z,29.20
2017-10-16T12:27:50.109Z,29.20
2017-10-16T12:30:18.557Z,29.50
2017-10-16T12:32:46.245Z,29.40
2017-10-16T12:35:14.737Z,29.40
2017-10-16T12:37:43.214Z,29.40
2017-10-16T12:40:11.709Z,29.00
2017-10-16T12:45:08.428Z,28.70
2017-10-16T12:47:36.130Z,28.60
2017-10-16T12:50:03.904Z,28.40
2017-10-16T12:52:31.606Z,28.50
2017-10-16T12:54:59.118Z,28.50
2017-10-16T12:57:26.802Z,28.80
2017-10-16T12:59:54.652Z,28.60
2017-10-16T13:02:22.346Z,28.60
2017-10-16T13:04:53.413Z,28.50
2017-10-16T13:07:22.155Z,28.10
2017-10-16T13:09:49.862Z,28.00
2017-10-16T13:12:18.339Z,28.10
2017-10-16T13:14:46.796Z,28.30
2017-10-16T13:17:14.482Z,28.30
2017-10-16T13:19:43.349Z,28.30
2017-10-16T13:22:11.061Z,28.30
2017-10-16T13:24:38.756Z,28.20
2017-10-16T13:27:07.333Z,28.00
2017-10-16T13:29:35.038Z,28.00
2017-10-16T13:32:03.516Z,27.90
2017-10-16T13:34:31.986Z,27.90
2017-10-16T13:36:59.666Z,27.90
2017-10-16T13:39:28.125Z,27.70
2017-10-16T13:41:55.859Z,27.60
2017-10-16T13:44:23.681Z,27.60
2017-10-16T13:46:52.144Z,27.60
2017-10-16T13:49:19.887Z,27.70
2017-10-16T13:51:47.591Z,27.70
2017-10-16T13:54:16.058Z,27.70
2017-10-16T13:56:43.813Z,27.70
2017-10-16T13:59:12.340Z,27.70
2017-10-16T14:01:40.075Z,27.70
2017-10-16T14:04:08.518Z,27.40
2017-10-16T14:06:41.856Z,27.40
2017-10-16T14:09:09.554Z,27.20
2017-10-16T14:11:37.281Z,27.10
2017-10-16T14:14:04.968Z,26.90
2017-10-16T14:16:32.702Z,26.80
2017-10-16T14:19:01.156Z,26.50
2017-10-16T14:21:28.840Z,26.50
2017-10-16T14:23:57.344Z,26.30
2017-10-16T14:26:25.046Z,26.30
2017-10-16T14:28:52.758Z,26.20
2017-10-16T14:31:20.478Z,26.10
2017-10-16T14:33:48.278Z,26.00
2017-10-16T14:36:15.960Z,26.00
2017-10-16T14:38:43.686Z,25.70
2017-10-16T14:41:12.157Z,25.40
2017-10-16T14:43:39.840Z,25.40
2017-10-16T14:46:07.902Z,25.30
2017-10-16T14:48:36.435Z,25.10
2017-10-16T14:51:04.882Z,25.00
2017-10-16T14:53:33.352Z,25.00
2017-10-16T14:56:01.044Z,25.00
2017-10-16T14:58:28.772Z,24.90
2017-10-16T15:00:56.493Z,24.90
2017-10-16T15:03:24.305Z,24.90
2017-10-16T15:05:52.031Z,24.90
2017-10-16T15:08:19.738Z,24.90
2017-10-16T15:10:47.517Z,24.90
2017-10-16T15:13:15.213Z,24.80
2017-10-16T15:15:43.264Z,24.70
2017-10-16T15:18:10.983Z,24.70
2017-10-16T15:20:39.473Z,24.40
2017-10-16T15:23:07.177Z,24.40
2017-10-16T15:25:35.696Z,24.30
2017-10-16T15:28:03.975Z,24.20
2017-10-16T15:30:31.717Z,24.10
2017-10-16T15:32:59.481Z,24.10
2017-10-16T15:35:27.628Z,24.00
2017-10-16T15:37:55.348Z,24.00
2017-10-16T15:40:23.891Z,24.00
2017-10-16T15:42:51.730Z,23.90
2017-10-16T15:45:19.473Z,23.90
2017-10-16T15:47:47.181Z,23.90
2017-10-16T15:50:14.876Z,23.70
2017-10-16T15:52:43.594Z,23.50
2017-10-16T15:55:11.102Z,23.50
2017-10-16T15:57:39.448Z,23.20
2017-10-16T16:00:07.903Z,23.00
2017-10-16T16:02:35.686Z,23.00
2017-10-16T16:05:03.405Z,22.90
2017-10-16T16:07:31.864Z,22.40
2017-10-16T16:09:59.609Z,22.40
2017-10-16T16:12:27.421Z,22.20
2017-10-16T16:14:55.225Z,22.10
2017-10-16T16:17:22.938Z,22.00
2017-10-16T16:19:51.406Z,21.70
2017-10-16T16:22:20.022Z,21.50
2017-10-16T16:24:47.716Z,21.40
2017-10-16T16:27:15.414Z,21.40
2017-10-16T16:29:43.921Z,21.20
2017-10-16T16:32:11.421Z,21.10
2017-10-16T16:34:38.948Z,21.20
2017-10-16T16:37:06.438Z,21.30
2017-10-16T16:39:34.142Z,21.30
2017-10-16T16:42:02.590Z,21.10
2017-10-16T16:44:30.644Z,21.10
2017-10-16T16:46:58.688Z,21.10
2017-10-16T16:49:27.103Z,20.90
2017-10-16T16:51:55.513Z,20.80
2017-10-16T16:54:24.666Z,20.60
2017-10-16T16:56:52.850Z,20.60
2017-10-16T16:59:21.013Z,20.50
2017-10-16T17:01:49.221Z,20.30
2017-10-16T17:04:18.501Z,20.10
2017-10-16T17:06:46.573Z,20.10
2017-10-16T17:09:15.044Z,20.00
2017-10-16T17:11:43.593Z,19.90
2017-10-16T17:14:12.033Z,19.90
2017-10-16T17:16:42.213Z,19.70
2017-10-16T17:19:10.786Z,19.70
2017-10-16T17:21:39.185Z,19.70
2017-10-16T17:24:07.312Z,19.60
2017-10-16T17:26:35.716Z,19.70
2017-10-16T17:29:03.876Z,19.70
2017-10-16T17:31:33.273Z,20.00
2017-10-16T17:34:01.687Z,20.00
2017-10-16T17:38:59.628Z,20.00
2017-10-16T17:41:27.541Z,19.90
2017-10-16T17:43:55.655Z,19.90
2017-10-16T17:46:23.769Z,19.90
2017-10-16T17:48:52.235Z,19.80
2017-10-16T17:51:20.633Z,19.80
2017-10-16T17:53:48.694Z,19.80
2017-10-16T17:56:16.570Z,19.80
2017-10-16T17:58:44.578Z,19.80
2017-10-16T18:01:13.085Z,19.80
2017-10-16T18:03:41.798Z,19.80
2017-10-16T18:06:09.890Z,19.80
2017-10-16T18:08:38.291Z,19.70
2017-10-16T18:11:07.465Z,19.60
2017-10-16T18:13:35.519Z,19.60
2017-10-16T18:16:04.430Z,19.70
2017-10-16T18:18:32.826Z,19.70
2017-10-16T18:21:01.205Z,19.70
2017-10-16T18:23:30.405Z,19.80
2017-10-16T18:25:58.790Z,19.80
2017-10-16T18:28:27.790Z,19.80
2017-10-16T18:30:56.593Z,19.80
2017-10-16T18:33:24.979Z,19.80
2017-10-16T18:35:53.057Z,19.70
2017-10-16T18:38:21.449Z,19.80
2017-10-16T18:40:49.498Z,19.70
2017-10-16T18:43:17.564Z,19.80
2017-10-16T18:45:45.648Z,19.90
2017-10-16T18:48:13.330Z,19.90
2017-10-16T18:50:42.521Z,19.90
2017-10-16T18:53:10.995Z,19.90
2017-10-16T18:55:38.772Z,19.90
2017-10-16T18:58:07.236Z,19.80
2017-10-16T19:00:34.941Z,19.80
2017-10-16T19:03:03.466Z,19.80
2017-10-16T19:05:31.874Z,19.70
2017-10-16T19:08:00.118Z,19.70
2017-10-16T19:10:28.162Z,19.70
2017-10-16T19:12:56.635Z,19.70
2017-10-16T19:15:25.864Z,19.60
2017-10-16T19:17:53.709Z,19.60
2017-10-16T19:20:21.435Z,19.60
2017-10-16T19:22:49.097Z,19.60
2017-10-16T19:25:16.656Z,19.60
2017-10-16T19:27:44.464Z,19.60
2017-10-16T19:30:12.343Z,19.60
2017-10-16T19:32:40.049Z,19.50
2017-10-16T19:35:08.121Z,19.40
2017-10-16T19:37:36.354Z,19.40
2017-10-16T19:40:04.139Z,19.40
2017-10-16T19:42:31.839Z,19.30
2017-10-16T19:44:59.530Z,19.30
2017-10-16T19:47:27.246Z,19.40
2017-10-16T19:49:54.930Z,19.40
2017-10-16T19:52:23.220Z,19.50
2017-10-16T19:54:51.668Z,19.60
2017-10-16T19:57:19.366Z,19.50
2017-10-16T19:59:47.082Z,19.60
2017-10-16T20:02:14.778Z,19.70
2017-10-16T20:04:43.305Z,19.60
2017-10-16T20:07:10.808Z,19.60
2017-10-16T20:09:39.264Z,19.60
2017-10-16T20:12:07.785Z,19.50
2017-10-16T20:14:36.422Z,19.50
2017-10-16T20:17:04.135Z,19.50
2017-10-16T20:19:31.816Z,19.60
2017-10-16T20:22:01.022Z,19.50
2017-10-16T20:24:29.151Z,19.50
2017-10-16T20:26:57.996Z,19.50
2017-10-16T20:29:25.698Z,19.50
2017-10-16T20:31:53.752Z,19.50
2017-10-16T20:34:23.995Z,19.40
2017-10-16T20:36:53.011Z,19.40
2017-10-16T20:44:18.843Z,19.30
2017-10-16T20:46:47.326Z,19.30
2017-10-16T20:49:15.797Z,19.30
2017-10-16T20:51:44.243Z,19.30
2017-10-16T20:56:41.008Z,19.10
2017-10-16T20:59:08.705Z,19.10
2017-10-16T21:01:37.521Z,19.00
2017-10-16T21:04:05.213Z,19.00
2017-10-16T21:06:33.279Z,19.00
2017-10-16T21:09:00.973Z,18.90
2017-10-16T21:11:28.531Z,18.90
2017-10-16T21:13:56.384Z,18.90
2017-10-16T21:16:24.073Z,18.80
2017-10-16T21:18:52.541Z,18.70
2017-10-16T21:21:20.990Z,18.70
2017-10-16T21:23:49.036Z,18.70
2017-10-16T21:26:17.091Z,18.70
2017-10-16T21:28:45.031Z,18.60
2017-10-16T21:31:13.501Z,18.60
2017-10-16T21:33:41.226Z,18.60
2017-10-16T21:36:08.919Z,18.50
2017-10-16T21:38:36.620Z,18.40
2017-10-16T21:41:05.960Z,18.30
2017-10-16T21:43:33.708Z,18.30
2017-10-16T21:46:01.398Z,18.20
2017-10-16T21:48:29.361Z,18.00
2017-10-16T21:50:57.069Z,18.00
2017-10-16T21:53:24.758Z,17.80
2017-10-16T21:55:53.413Z,17.40
2017-10-16T22:00:51.354Z,16.80
2017-10-16T22:03:19.066Z,17.20
2017-10-16T22:05:47.105Z,17.20
2017-10-16T22:08:14.818Z,17.20
2017-10-16T22:10:42.510Z,17.20
2017-10-16T22:13:10.207Z,17.20
2017-10-16T22:15:38.677Z,16.90
2017-10-16T22:18:07.165Z,16.80
2017-10-16T22:20:35.629Z,16.50
2017-10-16T22:23:03.321Z,16.50
2017-10-16T22:25:31.017Z,16.50
2017-10-16T22:27:58.722Z,16.30
2017-10-16T22:30:26.394Z,16.20
2017-10-16T22:32:55.228Z,16.30
2017-10-16T22:35:22.928Z,16.20
2017-10-16T22:37:50.620Z,16.10
2017-10-16T22:40:18.316Z,16.00
2017-10-16T22:42:46.006Z,16.00
2017-10-16T22:45:13.541Z,15.80
2017-10-16T22:47:41.309Z,15.90
2017-10-16T22:52:40.257Z,16.00
2017-10-16T22:55:11.561Z,15.90
2017-10-16T22:57:39.265Z,15.90
2017-10-16T23:00:07.725Z,15.80
2017-10-16T23:02:35.425Z,15.80
2017-10-16T23:05:03.463Z,15.70
2017-10-16T23:07:31.569Z,15.70
2017-10-16T23:09:59.263Z,15.70
2017-10-16T23:12:29.095Z,15.70
2017-10-16T23:14:57.509Z,15.70
2017-10-16T23:17:26.321Z,15.70
2017-10-16T23:19:53.837Z,15.70
2017-10-16T23:22:21.533Z,15.80
2017-10-16T23:24:49.217Z,15.90
2017-10-16T23:27:17.037Z,16.00
2017-10-16T23:29:45.494Z,16.30
2017-10-16T23:32:13.197Z,16.30
2017-10-16T23:34:40.908Z,16.40
2017-10-16T23:37:08.410Z,16.50
2017-10-16T23:39:36.897Z,16.50
2017-10-16T23:42:04.406Z,16.50
2017-10-16T23:44:32.101Z,16.60
2017-10-16T23:47:00.569Z,16.70
2017-10-16T23:49:28.265Z,16.70
2017-10-16T23:51:55.992Z,16.60
2017-10-16T23:54:23.648Z,16.50
2017-10-16T23:56:51.341Z,16.50
2017-10-16T23:59:18.870Z,16.60
